Latest Weather Observations for Goulburn Airport

IDN60901

Issued at 6:31 pm EDT Sunday 28 February 2021 (issued every 10 minutes, with the page automatically refreshed every 10 minutes)

About weather observations | Map of Canberra area stations | Latest observations for Canberra area | Other Formats
Station Details ID: 070330 Name: GOULBURN AIRPORT AWS Lat: -34.81 Lon: 149.73 Height: 640.0 m
Data from the previous 72 hours. | See also: Recent months at Goulburn Airport
Date/Time
EDT
Temp
°C
App
Temp
°C
Dew
Point
°C
Rel
Hum
%
Delta-T
°C
Wind Press
QNH
hPa
Press
MSL
hPa
Rain since
9am
mm
Dir  Spd
km/h
Gust
km/h
Spd
kts
Gust
kts
28/06:30pm 25.2 20.5 5.9 29 10.2 WNW 20 28 11 15 1011.6 1008.7 0.2
28/06:00pm 25.9 21.4 7.0 30 10.3 WNW 20 32 11 17 1011.3 1008.5 0.2
28/05:30pm 26.3 21.2 5.8 27 10.9 NW 22 35 12 19 1011.3 1008.5 0.2
28/05:00pm 26.6 21.1 6.1 27 11.0 WNW 24 35 13 19 1011.3 1008.5 0.2
28/04:30pm 27.2 23.0 7.6 29 10.8 W 19 30 10 16 1011.4 1008.6 0.2
28/04:00pm 26.8 21.9 5.1 25 11.4 WNW 20 33 11 18 1011.8 1008.9 0.2
28/03:30pm 27.1 22.4 6.0 26 11.3 W 20 35 11 19 1012.2 1009.4 0.2
28/03:00pm 26.8 21.4 6.2 27 11.1 WNW 24 33 13 18 1012.7 1009.9 0.2
28/02:30pm 26.5 21.2 7.0 29 10.6 WNW 24 39 13 21 1012.9 1010.1 0.2
28/02:00pm 26.6 21.3 6.6 28 10.8 W 24 33 13 18 1013.4 1010.6 0.2
28/01:30pm 26.4 21.0 6.4 28 10.8 W 24 33 13 18 1013.6 1010.8 0.2
28/01:00pm 26.0 21.4 6.6 29 10.4 W 20 32 11 17 1013.9 1011.1 0.2
28/12:30pm 25.8 21.2 6.4 29 10.4 WSW 20 33 11 18 1014.2 1011.4 0.2
28/12:00pm 25.5 20.2 6.7 30 10.1 W 24 39 13 21 1014.6 1011.8 0.0
28/11:30am 24.3 19.8 6.1 31 9.6 WNW 19 30 10 16 1014.9 1012.1 0.0
28/11:00am 23.4 20.7 7.5 36 8.6 W 11 20 6 11 1015.0 1012.2 0.0
28/10:30am 21.6 20.4 9.5 46 6.7 WNW 6 13 3 7 1015.1 1012.3 0.0
28/10:00am 19.6 17.2 8.6 49 5.9 WNW 11 13 6 7 1015.2 1012.4 0.0
28/09:30am 17.2 17.0 12.9 76 2.5 WNW 6 11 3 6 1015.2 1012.4 0.0
28/09:00am 13.7 13.5 13.5 99 0.1 N 7 9 4 5 1015.0 1012.2 0.0
28/08:38am 12.4 11.8 12.2 99 0.1 NNW 7 9 4 5 1014.9 1012.1 0.0
28/08:34am 12.1 11.4 11.9 99 0.1 NNW 7 9 4 5 1014.9 1012.1 0.0
28/08:30am 12.0 11.2 11.8 99 0.1 NNW 7 9 4 5 1015.0 1012.2 0.0
28/08:00am 11.1 10.1 10.9 99 0.1 NNW 7 11 4 6 1015.0 1012.2 0.0
28/07:30am 10.8 9.9 10.6 99 0.1 N 6 9 3 5 1014.7 1012.0 0.0
28/07:00am 10.8 11.0 10.6 99 0.1 CALM 0 0 0 0 1014.6 1011.8 0.0
28/06:30am 10.5 10.6 10.3 99 0.1 CALM 0 0 0 0 1014.2 1011.4 0.0
28/06:00am 10.3 10.4 10.1 99 0.1 CALM 0 0 0 0 1013.9 1011.1 0.0
28/05:30am 10.0 10.0 9.9 99 0.1 CALM 0 0 0 0 1013.9 1011.1 0.0
28/05:00am 9.6 9.5 9.5 99 0.1 CALM 0 0 0 0 1013.8 1011.0 0.0
28/04:30am 9.8 8.6 9.7 99 0.1 ESE 6 6 3 3 1013.7 1010.9 0.0
28/04:00am 10.5 10.6 10.3 99 0.1 CALM 0 0 0 0 1013.8 1011.0 0.0
28/03:30am 10.6 10.8 10.4 99 0.1 CALM 0 0 0 0 1013.7 1010.9 0.0
28/03:00am 10.7 9.8 10.5 99 0.1 ESE 6 7 3 4 1013.8 1011.0 0.0
28/02:30am 10.2 10.3 10.1 99 0.1 CALM 0 0 0 0 1014.0 1011.2 0.0
28/02:00am 10.1 10.1 9.8 98 0.2 CALM 0 0 0 0 1014.0 1011.2 0.0
28/01:40am 9.4 9.1 8.8 96 0.3 CALM 0 0 0 0 1014.0 1011.2 0.0
28/01:36am 9.5 9.3 8.9 96 0.3 CALM 0 0 0 0 1014.1 1011.3 0.0
28/01:30am 9.3 9.0 8.7 96 0.3 CALM 0 0 0 0 1014.2 1011.4 0.0
28/01:00am 9.4 8.7 8.5 94 0.5 SE 2 7 1 4 1014.0 1011.2 0.0
28/12:30am 9.9 9.6 8.8 93 0.6 CALM 0 0 0 0 1013.9 1011.1 0.0
28/12:00am 10.4 10.2 9.2 92 0.6 CALM 0 0 0 0 1014.0 1011.2 0.0
 
Date/Time
EDT
Temp
°C
App
Temp
°C
Dew
Point
°C
Rel
Hum
%
Delta-T
°C
Wind Press
QNH
hPa
Press
MSL
hPa
Rain since
9am
mm
Dir  Spd
km/h
Gust
km/h
Spd
kts
Gust
kts
27/11:30pm 10.4 8.8 8.8 90 0.8 SSW 7 9 4 5 1013.8 1011.0 0.0
27/11:00pm 11.3 10.8 9.2 87 1.1 ESE 2 7 1 4 1013.8 1011.0 0.0
27/10:30pm 11.9 11.8 9.5 85 1.3 CALM 0 0 0 0 1013.7 1010.9 0.0
27/10:00pm 12.1 11.6 9.5 84 1.4 SE 2 7 1 4 1013.5 1010.7 0.0
27/09:30pm 13.2 13.1 9.5 78 2.0 CALM 0 0 0 0 1013.4 1010.6 0.0
27/09:00pm 15.2 15.2 9.8 70 2.9 CALM 0 0 0 0 1012.9 1010.1 0.0
27/08:30pm 15.5 15.5 9.8 69 3.1 CALM 0 0 0 0 1012.8 1010.0 0.0
27/08:00pm 17.9 16.6 9.3 57 4.7 WSW 6 7 3 4 1012.4 1009.6 0.0
27/07:30pm 21.2 19.2 8.8 45 6.8 WSW 9 15 5 8 1012.1 1009.3 0.0
27/07:00pm 24.4 21.5 8.0 35 9.0 WSW 13 22 7 12 1011.9 1009.0 0.0
27/06:30pm 25.3 21.6 7.9 33 9.5 W 17 24 9 13 1011.9 1009.0 0.0
27/06:00pm 26.2 21.8 7.3 30 10.3 WSW 20 32 11 17 1011.9 1009.0 0.0
27/05:30pm 26.6 22.1 7.1 29 10.6 W 20 30 11 16 1012.0 1009.2 0.0
27/05:00pm 26.9 22.1 7.4 29 10.7 W 22 39 12 21 1012.0 1009.2 0.0
27/04:30pm 27.1 22.9 7.5 29 10.8 WSW 19 24 10 13 1012.2 1009.4 0.0
27/04:00pm 27.1 22.8 7.0 28 11.0 W 19 30 10 16 1012.5 1009.7 0.0
27/03:30pm 27.4 21.6 6.2 26 11.4 WNW 26 37 14 20 1012.6 1009.8 0.0
27/03:00pm 26.9 23.0 8.8 32 10.2 W 19 26 10 14 1012.8 1010.0 0.0
27/02:30pm 26.5 25.5 13.3 44 8.0 NW 11 28 6 15 1013.1 1010.3 0.0
27/02:00pm 24.3 24.2 13.2 50 6.6 NNW 6 13 3 7 1013.7 1010.9 0.0
27/01:30pm 23.6 23.7 13.8 54 5.9 WNW 6 15 3 8 1014.0 1011.2 0.0
27/01:00pm 23.1 23.0 14.9 60 5.0 ENE 9 13 5 7 1014.3 1011.5 0.0
27/12:30pm 22.5 22.7 16.8 70 3.6 ENE 11 20 6 11 1014.5 1011.7 0.0
27/12:10pm 21.7 21.0 15.3 67 3.9 E 13 17 7 9 1014.6 1011.8 0.0
27/12:00pm 20.9 20.1 15.2 70 3.5 ENE 13 17 7 9 1014.9 1012.1 0.0
27/11:30am 20.0 19.2 15.0 73 3.0 ENE 13 20 7 11 1015.2 1012.4 0.0
27/11:00am 18.9 18.0 14.8 77 2.5 NE 13 19 7 10 1015.4 1012.6 0.0
27/10:30am 17.7 16.0 14.8 83 1.7 ENE 17 20 9 11 1015.4 1012.6 0.0
27/10:00am 16.5 14.9 14.0 85 1.5 NE 15 22 8 12 1015.5 1012.7 0.0
27/09:30am 16.2 15.0 13.9 86 1.3 NE 13 20 7 11 1015.3 1012.5 0.0
27/09:00am 15.6 14.3 13.8 89 1.0 ENE 13 17 7 9 1015.4 1012.6 0.0
27/08:30am 15.3 14.0 13.7 90 0.9 ENE 13 17 7 9 1015.5 1012.7 0.0
27/08:00am 14.5 13.8 13.2 92 0.7 ESE 9 11 5 6 1015.4 1012.6 0.0
27/07:30am 14.1 13.3 13.0 93 0.6 SE 9 13 5 7 1015.1 1012.3 0.0
27/07:00am 14.0 13.2 12.9 93 0.6 ESE 9 11 5 6 1015.0 1012.2 0.0
27/06:30am 14.0 13.1 12.7 92 0.7 SE 9 13 5 7 1014.7 1012.0 0.0
27/06:00am 14.2 13.8 12.9 92 0.7 E 7 11 4 6 1014.7 1012.0 0.0
27/05:30am 14.2 13.0 12.9 92 0.7 ENE 11 13 6 7 1014.5 1011.7 0.0
27/05:00am 14.1 13.8 12.8 92 0.7 E 6 9 3 5 1014.7 1012.0 0.0
27/04:30am 13.8 13.3 12.5 92 0.7 ESE 7 9 4 5 1014.9 1012.1 0.0
27/04:00am 13.7 12.4 12.4 92 0.7 ESE 11 15 6 8 1015.0 1012.2 0.0
27/03:30am 13.9 13.5 12.5 91 0.8 ESE 6 7 3 4 1015.4 1012.6 0.0
27/03:00am 14.0 13.1 12.6 91 0.8 E 9 13 5 7 1015.3 1012.5 0.0
27/02:30am 14.1 12.9 12.7 91 0.8 ENE 11 17 6 9 1015.3 1012.5 0.0
27/02:00am 14.2 12.9 12.6 90 0.9 E 11 15 6 8 1015.4 1012.6 0.0
27/01:30am 14.4 13.1 12.6 89 1.0 ENE 11 17 6 9 1015.4 1012.6 0.0
27/01:00am 14.5 13.6 12.7 89 1.0 ENE 9 13 5 7 1016.1 1013.4 0.0
27/12:30am 14.6 13.7 12.6 88 1.1 ENE 9 17 5 9 1016.2 1013.5 0.0
27/12:00am 14.6 13.3 12.6 88 1.1 E 11 15 6 8 1016.1 1013.4 0.0
 
Date/Time
EDT
Temp
°C
App
Temp
°C
Dew
Point
°C
Rel
Hum
%
Delta-T
°C
Wind Press
QNH
hPa
Press
MSL
hPa
Rain since
9am
mm
Dir  Spd
km/h
Gust
km/h
Spd
kts
Gust
kts
26/11:30pm 14.5 13.2 12.5 88 1.1 E 11 15 6 8 1016.2 1013.5 0.0
26/11:00pm 14.5 12.8 12.5 88 1.1 E 13 17 7 9 1016.0 1013.2 0.0
26/10:30pm 14.6 12.6 12.6 88 1.1 E 15 22 8 12 1015.9 1013.1 0.0
26/10:00pm 14.6 12.6 12.6 88 1.1 ESE 15 20 8 11 1015.8 1013.0 0.0
26/09:30pm 14.5 12.4 12.5 88 1.1 ESE 15 20 8 11 1015.6 1012.8 0.0
26/09:00pm 14.2 12.9 12.6 90 0.9 ESE 11 15 6 8 1015.2 1012.4 0.0
26/08:59pm 14.1 12.8 12.5 90 0.9 ESE 11 15 6 8 1015.2 1012.4 0.0
26/08:42pm 14.5 12.4 12.4 87 1.2 E 15 22 8 12 1015.0 1012.2 0.0
26/08:30pm 14.8 12.4 12.5 86 1.3 ESE 17 28 9 15 1014.6 1011.8 0.0
26/08:23pm 14.9 11.9 12.6 86 1.3 ESE 20 28 11 15 1014.6 1011.8 0.0
26/08:00pm 15.4 13.0 12.7 84 1.5 ESE 17 24 9 13 1014.1 1011.3 0.0
26/07:30pm 19.8 18.1 8.2 47 6.2 W 7 9 4 5 1012.8 1010.0 0.0
26/07:00pm 22.1 18.9 6.7 37 8.1 W 13 15 7 8 1012.2 1009.4 0.0
26/06:30pm 22.4 18.2 5.8 34 8.6 W 17 26 9 14 1012.0 1009.2 0.0
26/06:00pm 24.3 20.2 6.1 31 9.6 W 17 24 9 13 1011.7 1008.8 0.0
26/05:30pm 24.3 19.7 5.6 30 9.8 W 19 28 10 15 1011.3 1008.5 0.0
26/05:00pm 24.8 20.2 6.5 31 9.8 WNW 20 32 11 17 1011.3 1008.5 0.0
26/04:30pm 24.8 20.2 6.5 31 9.8 WNW 20 30 11 16 1011.2 1008.4 0.0
26/04:00pm 24.6 20.2 7.3 33 9.4 WNW 20 33 11 18 1011.2 1008.4 0.0
26/03:30pm 24.3 18.5 4.6 28 10.1 WNW 24 35 13 19 1011.3 1008.5 0.0
26/03:00pm 24.3 18.7 5.6 30 9.8 WNW 24 35 13 19 1011.7 1008.8 0.0
26/02:30pm 24.3 19.0 7.0 33 9.3 WNW 24 37 13 20 1011.9 1009.0 0.0
26/02:00pm 24.2 18.1 6.5 32 9.4 W 28 37 15 20 1012.0 1009.2 0.0
26/01:30pm 23.1 17.2 4.1 29 9.6 WNW 24 35 13 19 1012.0 1009.2 0.0
26/01:00pm 23.4 17.8 5.3 31 9.4 WNW 24 32 13 17 1012.2 1009.4 0.0
26/12:30pm 23.1 16.6 4.6 30 9.4 WNW 28 41 15 22 1012.4 1009.6 0.0
26/12:00pm 21.9 17.1 5.8 35 8.3 WNW 20 32 11 17 1012.6 1009.8 0.0
26/11:30am 21.2 15.4 4.3 33 8.5 WNW 24 33 13 18 1012.8 1010.0 0.0
26/11:00am 21.0 15.8 5.4 36 8.0 WNW 22 33 12 18 1012.9 1010.1 0.0
26/10:30am 20.2 14.6 5.4 38 7.5 WNW 24 32 13 17 1012.8 1010.0 0.0
26/10:00am 19.3 15.0 5.4 40 7.0 WNW 17 24 9 13 1012.6 1009.8 0.0
26/09:30am 17.7 14.6 5.6 45 6.1 WNW 11 17 6 9 1012.5 1009.7 0.0
26/09:00am 16.4 13.8 7.9 57 4.4 NNW 11 15 6 8 1012.5 1009.7 3.0
26/08:30am 15.3 12.9 6.8 57 4.3 N 9 11 5 6 1012.4 1009.6 3.0
26/08:00am 13.5 13.0 9.2 75 2.3 NNW 2 7 1 4 1012.0 1009.2 3.0
26/07:30am 11.7 9.2 8.0 78 1.9 NNW 11 13 6 7 1011.8 1008.9 3.0
26/07:00am 10.4 7.3 7.3 81 1.5 NNW 13 15 7 8 1011.6 1008.7 3.0
26/06:30am 9.8 6.7 7.2 84 1.3 N 13 15 7 8 1011.0 1008.2 3.0
26/06:00am 10.0 7.3 8.8 92 0.6 NNW 13 15 7 8 1010.7 1007.9 3.0
26/05:30am 9.2 7.5 8.4 95 0.4 NW 7 7 4 4 1010.6 1007.8 3.0
26/05:00am 9.5 9.1 8.4 93 0.6 CALM 0 0 0 0 1010.4 1007.5 3.0
26/04:30am 10.5 10.1 9.7 95 0.4 NW 2 7 1 4 1010.3 1007.4 3.0
26/04:00am 11.3 9.9 9.7 90 0.8 N 7 9 4 5 1010.2 1007.3 3.0
26/03:30am 13.2 11.1 11.1 87 1.1 NW 13 15 7 8 1010.2 1007.3 3.0
26/03:00am 14.2 11.4 11.5 84 1.5 NW 17 19 9 10 1010.2 1007.3 3.0
26/02:30am 14.2 11.6 11.9 86 1.3 WNW 17 20 9 11 1010.1 1007.2 3.0
26/02:00am 14.5 11.7 12.5 88 1.1 NW 19 20 10 11 1010.2 1007.3 3.0
26/01:30am 14.7 12.9 13.2 91 0.9 NW 15 19 8 10 1010.5 1007.6 3.0
26/01:00am 13.7 12.0 12.6 93 0.6 WNW 13 15 7 8 1010.6 1007.8 3.0
26/12:30am 14.8 13.4 13.5 92 0.7 WNW 13 15 7 8 1010.6 1007.8 3.0
26/12:00am 15.2 13.9 13.6 90 0.9 NNW 13 15 7 8 1010.6 1007.8 3.0
 
Date/Time
EDT
Temp
°C
App
Temp
°C
Dew
Point
°C
Rel
Hum
%
Delta-T
°C
Wind Press
QNH
hPa
Press
MSL
hPa
Rain since
9am
mm
Dir  Spd
km/h
Gust
km/h
Spd
kts
Gust
kts
25/11:30pm 15.6 14.8 14.0 90 0.9 NNW 11 13 6 7 1010.8 1008.0 3.0
25/11:00pm 15.8 15.2 14.5 92 0.8 NNW 11 13 6 7 1010.8 1008.0 3.0
25/10:30pm 14.7 14.1 13.6 93 0.6 NNW 9 11 5 6 1010.9 1008.1 3.0
25/10:00pm 15.8 15.6 14.8 94 0.6 N 9 13 5 7 1010.8 1008.0 3.0
25/09:30pm 15.5 15.6 13.9 90 0.9 N 6 9 3 5 1010.6 1007.8 3.0
25/09:00pm 16.1 16.3 14.1 88 1.2 N 6 9 3 5 1010.5 1007.6 3.0
25/08:30pm 17.2 17.0 14.8 86 1.4 NNW 9 13 5 7 1010.3 1007.4 3.0
25/08:00pm 18.3 18.1 14.6 79 2.2 NNW 9 9 5 5 1010.2 1007.3 3.0
25/07:30pm 20.0 20.6 15.2 74 2.9 NNW 6 11 3 6 1010.0 1007.1 3.0
25/07:00pm 21.8 21.8 15.2 66 4.0 NW 9 13 5 7 1009.5 1006.7 3.0

Latest Capital City Observations: Canberra | Sydney | Melbourne | Brisbane | Adelaide | Perth | Hobart | Darwin

Other formats

Comma delimited format used in spreadsheet applications
http://www.bom.gov.au/fwo/IDN60903/IDN60903.95716.axf

JavaScript Object Notation format (JSON) in row-major order
http://www.bom.gov.au/fwo/IDN60903/IDN60903.95716.json

Data quality

Most of these data are generated automatically and are frequently updated. Quality checks on data are not normally performed. It is possible for incorrect values to appear. Refer to information at About Latest Weather Observations and please check the disclaimer before using these data.